Time;durP1;ratioP1;P1;durP2;ratioP2;P2;SDS_P1;SDS_P2;PMS_P1;PMS_P2;Temp;Humidity;BMP_temperature;BMP_pressure;BME280_temperature;BME280_humidity;BME280_pressure;Samples;Min_cycle;Max_cycle;Signal;HPM_P1;HPM_P2
2022/06/10 00:00:58;;;;;;;7.70;2.30;;;17.00;74.70;;;;;;4943435;29;20039;-85
2022/06/10 00:03:25;;;;;;;6.00;1.70;;;17.10;74.50;;;;;;4953091;29;20058;-85
2022/06/10 00:05:57;;;;;;;8.52;1.67;;;17.20;74.00;;;;;;4958524;28;20391;-85
2022/06/10 00:08:26;;;;;;;6.38;1.63;;;17.20;73.80;;;;;;4956163;28;20081;-86
2022/06/10 00:10:52;;;;;;;10.80;1.83;;;17.10;74.40;;;;;;4954323;28;20471;-85
2022/06/10 00:13:21;;;;;;;7.82;1.77;;;17.10;74.10;;;;;;4936908;29;20505;-85
2022/06/10 00:15:48;;;;;;;2.38;1.75;;;17.10;74.40;;;;;;4939544;29;20035;-85
2022/06/10 00:18:15;;;;;;;5.65;1.55;;;17.10;74.30;;;;;;4937070;29;20087;-85
2022/06/10 00:21:02;;;;;;;5.35;1.85;;;17.00;74.50;;;;;;4947638;29;20031;-85
2022/06/10 00:23:28;;;;;;;4.32;1.85;;;17.10;74.20;;;;;;4956838;28;20082;-85
2022/06/10 00:25:53;;;;;;;7.75;2.30;;;17.10;74.30;;;;;;4954684;28;20035;-85
2022/06/10 00:28:19;;;;;;;6.55;2.00;;;17.10;74.30;;;;;;4957935;28;20537;-85
2022/06/10 00:30:45;;;;;;;6.88;1.85;;;17.00;74.40;;;;;;4954861;28;20055;-85
2022/06/10 00:33:12;;;;;;;9.10;2.22;;;17.10;74.50;;;;;;4958073;28;20370;-85
2022/06/10 00:35:38;;;;;;;5.55;1.73;;;17.00;74.20;;;;;;4955992;28;20023;-84
2022/06/10 00:38:10;;;;;;;8.13;2.13;;;17.00;74.50;;;;;;4942823;28;20047;-85
2022/06/10 00:40:40;;;;;;;5.07;1.73;;;17.20;74.10;;;;;;4951964;29;20042;-85
2022/06/10 00:43:11;;;;;;;4.13;2.15;;;17.20;74.40;;;;;;4950871;29;20028;-86
2022/06/10 00:45:48;;;;;;;;;;;17.20;74.50;;;;;;4939277;29;20042;-85
2022/06/10 00:48:19;;;;;;;10.15;2.08;;;17.20;74.60;;;;;;4955816;29;19910;-85
2022/06/10 00:50:47;;;;;;;4.00;2.20;;;17.20;74.40;;;;;;4947963;28;20095;-85
2022/06/10 00:53:16;;;;;;;3.67;1.88;;;17.10;75.20;;;;;;4936543;29;20028;-86
2022/06/10 00:55:44;;;;;;;4.90;1.80;;;17.20;75.10;;;;;;4938605;29;20051;-85
2022/06/10 00:58:22;;;;;;;5.63;2.50;;;17.30;75.00;;;;;;4936307;29;20035;-85
2022/06/10 01:00:48;;;;;;;3.35;1.95;;;17.20;75.50;;;;;;4971188;28;20031;-85
2022/06/10 01:03:14;;;;;;;8.07;2.47;;;17.20;75.50;;;;;;4955901;29;20421;-85
2022/06/10 01:05:40;;;;;;;6.65;2.85;;;17.30;75.20;;;;;;4970250;28;20037;-85
2022/06/10 01:08:11;;;;;;;3.63;2.10;;;17.30;75.20;;;;;;4945635;29;20067;-85
2022/06/10 01:10:50;;;;;;;7.38;2.08;;;17.30;75.20;;;;;;4936347;29;20051;-85
2022/06/10 01:13:53;;;;;;;4.55;1.70;;;17.30;75.60;;;;;;4938110;29;20036;-85
2022/06/10 01:16:57;;;;;;;4.72;1.90;;;17.30;75.90;;;;;;4943681;29;20035;-85
2022/06/10 01:19:50;;;;;;;5.25;2.03;;;17.30;75.70;;;;;;4956428;29;20075;-85
2022/06/10 01:22:16;;;;;;;7.85;2.10;;;17.40;75.50;;;;;;4936055;29;20031;-85
2022/06/10 01:24:50;;;;;;;6.38;1.63;;;17.40;75.50;;;;;;4942616;29;20033;-85
2022/06/10 01:27:48;;;;;;;5.78;2.20;;;17.30;75.90;;;;;;4955130;28;20118;-86
2022/06/10 01:30:42;;;;;;;4.65;1.83;;;17.30;76.10;;;;;;4937051;29;20063;-86
2022/06/10 01:33:44;;;;;;;6.63;2.20;;;17.40;75.80;;;;;;4944630;29;20173;-85
2022/06/10 01:36:36;;;;;;;5.97;1.80;;;17.40;76.10;;;;;;4955335;28;20537;-85
2022/06/10 01:39:43;;;;;;;5.63;2.17;;;17.50;76.30;;;;;;4955099;28;20024;-85
2022/06/10 01:42:26;;;;;;;4.63;2.08;;;17.60;75.70;;;;;;4955689;28;20453;-86
2022/06/10 01:45:02;;;;;;;4.68;2.10;;;17.60;76.40;;;;;;4944907;28;20059;-85
2022/06/10 01:48:03;;;;;;;4.53;2.20;;;17.70;76.10;;;;;;4941944;29;20127;-85
2022/06/10 01:50:47;;;;;;;8.55;1.95;;;17.70;76.20;;;;;;4938695;29;20034;-85
2022/06/10 01:53:22;;;;;;;6.82;1.98;;;17.70;75.60;;;;;;4941524;29;20035;-85
2022/06/10 01:55:54;;;;;;;7.03;2.08;;;17.80;75.10;;;;;;4939605;29;20034;-86
2022/06/10 01:58:28;;;;;;;5.30;1.83;;;17.80;75.60;;;;;;4942010;29;20043;-86
2022/06/10 02:01:05;;;;;;;5.25;2.08;;;17.80;75.80;;;;;;4939479;29;20050;-85
2022/06/10 02:03:38;;;;;;;8.95;2.35;;;17.70;76.00;;;;;;4940710;29;20102;-85
2022/06/10 02:06:11;;;;;;;5.00;2.00;;;17.80;75.70;;;;;;4954629;28;20023;-85
2022/06/10 02:08:54;;;;;;;6.03;2.30;;;17.80;75.30;;;;;;4939365;29;20390;-86
2022/06/10 02:11:25;;;;;;;9.73;2.25;;;17.80;75.80;;;;;;4952329;29;20019;-85
2022/06/10 02:13:58;;;;;;;6.53;2.20;;;17.70;76.10;;;;;;4957214;28;20062;-85
2022/06/10 02:16:28;;;;;;;6.00;1.98;;;17.70;75.60;;;;;;4942300;28;20027;-85
2022/06/10 02:19:02;;;;;;;7.70;2.33;;;17.70;75.90;;;;;;4939262;29;20040;-85
2022/06/10 02:21:51;;;;;;;4.97;2.03;;;17.70;76.00;;;;;;4954296;29;20031;-85
2022/06/10 02:24:20;;;;;;;5.97;1.85;;;17.80;75.70;;;;;;4949194;28;20711;-85
2022/06/10 02:26:47;;;;;;;7.00;2.22;;;17.70;76.30;;;;;;4940884;29;20035;-85
2022/06/10 02:29:22;;;;;;;4.65;2.72;;;17.70;76.50;;;;;;4938647;29;20159;-86
2022/06/10 02:31:56;;;;;;;4.70;2.40;;;17.70;76.60;;;;;;4939909;29;20046;-86
2022/06/10 02:34:22;;;;;;;7.53;2.15;;;17.60;77.10;;;;;;4938542;28;20035;-86
2022/06/10 02:37:03;;;;;;;9.10;1.98;;;17.50;77.50;;;;;;4953692;29;20028;-85
2022/06/10 02:39:46;;;;;;;3.78;1.65;;;17.50;78.00;;;;;;4940798;29;20031;-85
2022/06/10 02:42:33;;;;;;;9.10;2.67;;;17.50;78.20;;;;;;4938627;29;20047;-85
2022/06/10 02:45:44;;;;;;;4.25;2.30;;;17.60;77.90;;;;;;4959002;28;20110;-85
2022/06/10 02:48:15;;;;;;;9.55;2.33;;;17.60;78.10;;;;;;4954950;29;20070;-85
2022/06/10 02:50:44;;;;;;;5.03;2.22;;;17.60;77.90;;;;;;4941327;29;20035;-85
2022/06/10 02:53:09;;;;;;;4.03;1.80;;;17.60;78.20;;;;;;4938356;29;20044;-85
2022/06/10 02:55:37;;;;;;;10.15;2.40;;;17.70;77.80;;;;;;4938491;29;20020;-86
2022/06/10 03:01:20;;;;;;;6.80;2.20;;;17.60;78.40;;;;;;4959056;29;20043;-85
2022/06/10 03:04:18;;;;;;;7.20;2.55;;;17.50;78.30;;;;;;4957306;28;20035;-86
2022/06/10 03:07:26;;;;;;;10.02;2.70;;;17.50;78.60;;;;;;4960043;28;20046;-86
2022/06/10 03:10:16;;;;;;;10.68;2.63;;;17.50;78.60;;;;;;4954971;28;20023;-86
2022/06/10 03:12:46;;;;;;;;;;;17.50;78.50;;;;;;4960046;28;20028;-86
2022/06/10 03:15:53;;;;;;;4.05;2.30;;;17.50;78.70;;;;;;4956263;28;19941;-86
2022/06/10 03:18:56;;;;;;;5.40;1.90;;;17.40;79.40;;;;;;4957168;28;20047;-86
2022/06/10 03:21:28;;;;;;;4.90;2.20;;;17.40;79.10;;;;;;4955729;29;20070;-85
2022/06/10 03:24:24;;;;;;;7.95;2.45;;;17.40;79.10;;;;;;4959575;28;20035;-86
2022/06/10 03:26:53;;;;;;;4.60;2.33;;;17.40;79.00;;;;;;4955564;28;20027;-85
2022/06/10 03:29:56;;;;;;;3.25;2.05;;;17.60;78.50;;;;;;4940154;29;20028;-86
2022/06/10 03:32:33;;;;;;;3.47;1.92;;;17.50;78.40;;;;;;4940844;29;20410;-86
2022/06/10 03:35:09;;;;;;;7.13;2.17;;;17.60;78.40;;;;;;4959713;28;20027;-86
2022/06/10 03:37:38;;;;;;;6.10;1.88;;;17.60;78.10;;;;;;4956858;28;20035;-87
2022/06/10 03:40:06;;;;;;;6.22;2.40;;;17.60;78.10;;;;;;4972675;28;20034;-86
2022/06/10 03:42:33;;;;;;;7.03;3.13;;;17.60;78.30;;;;;;4945396;28;20080;-87
2022/06/10 03:44:59;;;;;;;8.57;2.30;;;17.60;78.40;;;;;;4952321;29;20106;-86
2022/06/10 03:47:33;;;;;;;6.57;2.20;;;17.60;77.90;;;;;;4963967;28;20061;-86
2022/06/10 03:50:07;;;;;;;7.97;2.63;;;17.60;78.20;;;;;;4956771;29;20401;-86
2022/06/10 03:52:36;;;;;;;4.90;1.88;;;17.50;78.60;;;;;;4959215;28;20030;-86
2022/06/10 03:55:04;;;;;;;6.32;2.30;;;17.60;78.60;;;;;;4970726;28;20034;-86
2022/06/10 03:57:32;;;;;;;5.65;2.47;;;17.60;78.40;;;;;;4939264;29;20156;-86
2022/06/10 03:59:58;;;;;;;4.80;1.80;;;17.60;78.40;;;;;;4951923;29;20032;-86
2022/06/10 04:02:24;;;;;;;7.82;2.25;;;17.50;79.00;;;;;;4937271;29;20035;-86
2022/06/10 04:04:51;;;;;;;3.78;2.33;;;17.40;79.20;;;;;;4943993;29;20042;-86
2022/06/10 04:07:19;;;;;;;10.65;2.33;;;17.50;79.20;;;;;;4970465;28;20102;-83
2022/06/10 04:09:48;;;;;;;3.33;1.55;;;17.50;79.00;;;;;;4957982;28;20547;-88
2022/06/10 04:12:15;;;;;;;4.70;2.05;;;17.50;79.10;;;;;;4955165;28;20510;-86
2022/06/10 04:14:42;;;;;;;5.32;2.10;;;17.50;79.20;;;;;;4956278;28;20162;-88
2022/06/10 04:17:09;;;;;;;4.78;1.83;;;17.50;79.60;;;;;;4952015;29;20036;-88
2022/06/10 04:19:35;;;;;;;8.68;2.10;;;17.50;79.70;;;;;;4954887;29;20606;-90
2022/06/10 04:22:03;;;;;;;6.03;2.33;;;17.60;79.50;;;;;;4958213;29;20027;-88
2022/06/10 04:24:28;;;;;;;5.35;1.98;;;17.50;80.20;;;;;;4951819;28;20054;-88
2022/06/10 04:26:54;;;;;;;9.35;2.15;;;17.50;80.50;;;;;;4943353;29;20402;-89
2022/06/10 04:29:20;;;;;;;8.50;2.45;;;17.50;80.10;;;;;;4956046;28;20027;-89
2022/06/10 04:31:46;;;;;;;10.82;2.78;;;17.50;80.40;;;;;;4954999;28;20087;-88
2022/06/10 04:34:12;;;;;;;5.90;2.10;;;17.50;80.50;;;;;;4955044;29;20015;-89
2022/06/10 04:36:38;;;;;;;6.95;2.10;;;17.50;80.70;;;;;;4954666;29;20031;-89
2022/06/10 04:39:04;;;;;;;9.48;2.85;;;17.50;80.60;;;;;;4954331;29;20030;-89
2022/06/10 04:41:30;;;;;;;10.07;2.80;;;17.50;80.30;;;;;;4954615;28;20075;-89
2022/06/10 04:43:56;;;;;;;3.40;2.30;;;17.60;80.50;;;;;;4954404;28;20050;-89
2022/06/10 04:46:34;;;;;;;6.20;2.97;;;17.60;80.50;;;;;;4947431;28;20691;-87
2022/06/10 04:48:59;;;;;;;8.13;2.38;;;17.50;80.50;;;;;;4950950;29;20107;-88
2022/06/10 04:51:26;;;;;;;3.85;2.05;;;17.60;80.40;;;;;;4937059;29;20055;-89
2022/06/10 04:53:52;;;;;;;2.85;1.95;;;17.60;80.30;;;;;;4939278;29;20034;-88
2022/06/10 04:56:18;;;;;;;6.28;2.58;;;17.70;80.10;;;;;;4953318;28;20411;-78
2022/06/10 04:58:44;;;;;;;4.78;2.45;;;17.60;80.40;;;;;;4955488;28;20049;-78
2022/06/10 05:01:10;;;;;;;6.57;3.08;;;17.70;80.20;;;;;;4955319;28;20078;-78
2022/06/10 05:03:35;;;;;;;4.85;2.13;;;17.70;80.40;;;;;;4953293;28;20680;-79
2022/06/10 05:06:01;;;;;;;6.18;1.95;;;17.80;80.00;;;;;;4954367;28;20085;-78
2022/06/10 05:08:27;;;;;;;3.78;1.67;;;17.80;80.00;;;;;;4955294;28;20613;-78
2022/06/10 05:10:52;;;;;;;3.60;2.15;;;17.90;79.90;;;;;;4955132;29;20023;-79
2022/06/10 05:13:20;;;;;;;3.38;1.60;;;17.80;79.90;;;;;;4944404;28;20027;-78
2022/06/10 05:15:47;;;;;;;3.42;1.92;;;17.80;80.10;;;;;;4936295;29;20087;-77
2022/06/10 05:18:15;;;;;;;4.03;2.00;;;17.70;80.80;;;;;;4936486;29;20024;-78
2022/06/10 05:20:43;;;;;;;5.47;1.70;;;17.80;80.50;;;;;;4976206;28;20398;-77
2022/06/10 05:23:12;;;;;;;6.78;1.90;;;17.80;80.50;;;;;;4961725;28;20047;-78
2022/06/10 05:25:39;;;;;;;3.25;2.03;;;17.90;80.20;;;;;;4961557;29;20401;-76
2022/06/10 05:28:05;;;;;;;7.88;1.95;;;18.00;80.20;;;;;;4941038;28;20048;-82
2022/06/10 05:30:34;;;;;;;4.03;1.67;;;17.90;80.40;;;;;;4951228;29;20051;-78
2022/06/10 05:33:00;;;;;;;6.72;2.70;;;18.00;80.50;;;;;;4950672;29;20085;-79
2022/06/10 05:35:27;;;;;;;6.20;1.83;;;17.90;80.70;;;;;;4939915;29;20024;-79
2022/06/10 05:37:53;;;;;;;4.15;1.73;;;17.90;80.80;;;;;;4953511;29;20035;-79
2022/06/10 05:40:21;;;;;;;2.05;1.17;;;17.90;80.80;;;;;;4950259;28;20039;-79
2022/06/10 05:42:47;;;;;;;6.25;1.70;;;17.90;81.00;;;;;;4941164;29;20044;-79
2022/06/10 05:45:17;;;;;;;3.90;1.67;;;18.00;80.90;;;;;;4944459;29;20090;-79
2022/06/10 05:47:45;;;;;;;4.78;1.73;;;18.00;81.10;;;;;;4960408;29;20025;-79
2022/06/10 05:50:20;;;;;;;4.28;1.48;;;18.10;80.70;;;;;;4960912;28;20118;-79
2022/06/10 05:52:46;;;;;;;3.65;1.48;;;18.20;80.50;;;;;;4947403;28;20055;-79
2022/06/10 05:55:12;;;;;;;4.65;1.65;;;18.30;80.40;;;;;;4956400;29;20028;-78
2022/06/10 05:57:39;;;;;;;3.28;1.30;;;18.30;80.50;;;;;;4951439;29;20035;-78
2022/06/10 06:00:09;;;;;;;2.53;1.48;;;18.30;80.30;;;;;;4950394;28;20102;-79
2022/06/10 06:02:34;;;;;;;3.38;1.30;;;18.30;80.50;;;;;;4952641;28;20035;-78
2022/06/10 06:05:00;;;;;;;4.78;1.65;;;18.30;80.70;;;;;;4960741;28;20064;-79
2022/06/10 06:07:28;;;;;;;3.00;1.42;;;18.40;80.60;;;;;;4960147;28;20031;-79
2022/06/10 06:09:55;;;;;;;4.53;1.48;;;18.50;80.60;;;;;;4945927;28;20049;-79
2022/06/10 06:12:22;;;;;;;2.70;0.90;;;18.50;80.40;;;;;;4928976;29;20116;-79
2022/06/10 06:14:47;;;;;;;3.83;1.40;;;18.50;80.60;;;;;;4944380;28;20035;-81
2022/06/10 06:17:14;;;;;;;1.63;1.10;;;18.50;80.70;;;;;;4941118;28;20028;-79
2022/06/10 06:19:40;;;;;;;4.18;1.63;;;18.40;80.40;;;;;;4942584;29;20042;-79
2022/06/10 06:22:07;;;;;;;3.15;1.60;;;18.40;80.50;;;;;;4974847;28;20086;-80
2022/06/10 06:24:34;;;;;;;2.38;1.33;;;18.30;81.30;;;;;;4960693;28;20023;-81
2022/06/10 06:27:01;;;;;;;6.90;2.03;;;18.30;81.20;;;;;;4956964;28;20035;-80
2022/06/10 06:29:27;;;;;;;5.00;1.60;;;18.30;81.30;;;;;;4972239;28;20023;-80
2022/06/10 06:31:53;;;;;;;3.42;1.52;;;18.40;81.30;;;;;;4968518;28;20029;-80
2022/06/10 06:34:20;;;;;;;4.53;1.30;;;18.50;81.00;;;;;;4946417;28;20023;-80
2022/06/10 06:36:48;;;;;;;1.73;1.10;;;18.70;80.60;;;;;;4956201;28;20277;-80
2022/06/10 06:39:16;;;;;;;3.22;1.60;;;18.90;79.90;;;;;;4944970;29;20075;-80
2022/06/10 06:41:43;;;;;;;5.68;1.50;;;18.90;79.20;;;;;;4944152;28;20119;-80
2022/06/10 06:44:09;;;;;;;1.63;1.02;;;18.90;79.20;;;;;;4949728;28;20043;-80
2022/06/10 06:46:37;;;;;;;4.60;1.00;;;19.00;79.20;;;;;;4946584;28;20055;-80
2022/06/10 06:49:11;;;;;;;2.75;1.00;;;19.20;78.80;;;;;;4944316;29;20031;-80
2022/06/10 06:51:39;;;;;;;3.72;1.35;;;19.30;77.90;;;;;;4944276;29;20158;-80
2022/06/10 06:54:06;;;;;;;2.75;1.00;;;19.30;78.10;;;;;;4942640;28;20043;-80
2022/06/10 06:56:31;;;;;;;3.15;1.05;;;19.40;77.60;;;;;;4954517;29;20569;-80
2022/06/10 06:58:57;;;;;;;2.92;0.88;;;19.50;77.40;;;;;;4943556;28;20067;-80
2022/06/10 07:01:23;;;;;;;2.35;1.15;;;19.50;76.80;;;;;;4934920;29;20043;-80
2022/06/10 07:03:49;;;;;;;4.22;0.80;;;19.50;77.10;;;;;;4961496;28;20039;-80
2022/06/10 07:06:15;;;;;;;2.83;0.98;;;19.50;76.90;;;;;;4953303;28;20047;-80
2022/06/10 07:08:41;;;;;;;1.23;0.80;;;19.40;76.70;;;;;;4947270;28;20086;-80
2022/06/10 07:11:08;;;;;;;4.28;0.68;;;19.30;77.00;;;;;;4961029;28;20019;-80
2022/06/10 07:13:38;;;;;;;2.42;0.90;;;19.30;77.10;;;;;;4956453;28;20757;-80
2022/06/10 07:16:06;;;;;;;2.42;0.73;;;19.30;76.70;;;;;;4956160;28;20034;-80
2022/06/10 07:18:32;;;;;;;5.47;0.95;;;19.40;76.80;;;;;;4942954;28;21196;-80
2022/06/10 07:20:58;;;;;;;1.80;0.80;;;19.50;76.60;;;;;;4948757;29;20106;-80
2022/06/10 07:23:25;;;;;;;2.35;1.00;;;19.50;76.20;;;;;;4938656;28;20107;-80
2022/06/10 07:25:51;;;;;;;3.22;0.77;;;19.60;76.10;;;;;;4955361;28;20034;-80
2022/06/10 07:28:17;;;;;;;0.95;0.52;;;19.70;75.60;;;;;;4952434;28;20027;-78
2022/06/10 07:30:43;;;;;;;2.45;0.75;;;19.60;75.30;;;;;;4940971;29;20470;-78
2022/06/10 07:33:10;;;;;;;3.35;1.35;;;19.80;75.20;;;;;;4950222;28;20031;-78
2022/06/10 07:35:37;;;;;;;2.03;0.70;;;19.80;75.00;;;;;;4950270;28;20023;-78
2022/06/10 07:38:03;;;;;;;1.48;0.50;;;19.90;74.30;;;;;;4949337;28;20024;-78
2022/06/10 07:43:20;;;;;;;0.80;0.40;;;20.00;74.10;;;;;;4939454;28;20118;-79
2022/06/10 07:45:46;;;;;;;1.25;0.40;;;22.10;68.70;;;;;;4935590;29;20032;-79
2022/06/10 07:48:12;;;;;;;1.17;0.38;;;23.10;64.20;;;;;;4933773;29;20667;-79
2022/06/10 07:50:41;;;;;;;1.73;0.52;;;22.30;65.50;;;;;;4935713;29;20028;-79
2022/06/10 07:53:07;;;;;;;1.65;0.70;;;21.70;67.50;;;;;;4936346;29;20422;-79
2022/06/10 07:55:33;;;;;;;0.88;0.52;;;21.20;68.70;;;;;;4945214;29;20470;-78
2022/06/10 07:57:59;;;;;;;2.75;0.90;;;20.90;70.70;;;;;;4969802;28;20486;-79
2022/06/10 08:00:26;;;;;;;1.20;0.30;;;20.80;71.60;;;;;;4952770;28;20031;-78
2022/06/10 08:02:52;;;;;;;2.92;0.70;;;20.80;70.80;;;;;;4935639;29;20107;-79
2022/06/10 08:05:19;;;;;;;2.25;0.47;;;20.90;70.30;;;;;;4946958;29;20055;-78
2022/06/10 08:07:46;;;;;;;2.05;0.68;;;20.80;70.50;;;;;;4937328;29;20090;-79
2022/06/10 08:10:17;;;;;;;1.02;0.40;;;20.50;71.00;;;;;;4935482;29;20027;-78
2022/06/10 08:12:43;;;;;;;0.77;0.45;;;20.30;71.80;;;;;;4956287;28;20074;-79
2022/06/10 08:15:09;;;;;;;1.98;0.40;;;20.40;72.30;;;;;;4954907;28;20031;-78
2022/06/10 08:17:34;;;;;;;0.80;0.50;;;20.30;72.60;;;;;;4954576;28;20050;-79
2022/06/10 08:20:01;;;;;;;2.33;0.43;;;20.50;72.60;;;;;;4965403;28;20027;-79
2022/06/10 08:22:34;;;;;;;1.45;0.52;;;20.60;71.70;;;;;;4961968;28;20046;-79
2022/06/10 08:25:04;;;;;;;1.02;0.35;;;20.80;71.20;;;;;;4951087;29;20054;-79
2022/06/10 08:27:30;;;;;;;1.17;0.38;;;21.00;70.50;;;;;;4947969;29;20085;-78
2022/06/10 08:29:57;;;;;;;1.48;0.45;;;21.10;70.10;;;;;;4947845;28;20028;-79
2022/06/10 08:32:23;;;;;;;1.60;0.40;;;21.70;67.80;;;;;;4949360;29;20035;-79
2022/06/10 08:34:49;;;;;;;0.80;0.30;;;21.80;67.00;;;;;;4944864;29;20510;-78
2022/06/10 08:37:15;;;;;;;1.33;0.32;;;21.90;66.50;;;;;;4938353;28;20171;-78
2022/06/10 08:39:41;;;;;;;1.55;0.55;;;22.30;65.00;;;;;;4968832;28;20050;-78
2022/06/10 08:42:32;;;;;;;0.63;0.30;;;22.30;64.90;;;;;;4945631;29;20066;-79
2022/06/10 08:45:12;;;;;;;0.95;0.50;;;22.40;64.20;;;;;;4946683;28;20036;-79
2022/06/10 08:48:10;;;;;;;0.88;0.40;;;23.30;62.50;;;;;;4944168;28;20655;-76
2022/06/10 08:50:58;;;;;;;1.73;0.40;;;23.40;60.60;;;;;;4955177;28;20461;-79
2022/06/10 08:53:32;;;;;;;0.20;0.10;;;23.00;61.60;;;;;;4943953;28;20082;-79
2022/06/10 08:56:17;;;;;;;1.13;0.28;;;22.60;61.60;;;;;;4949872;28;20485;-78
2022/06/10 08:59:00;;;;;;;0.28;0.15;;;22.30;61.00;;;;;;4961106;28;20027;-78
2022/06/10 09:01:29;;;;;;;0.65;0.30;;;22.10;62.30;;;;;;4947829;28;20062;-78
2022/06/10 09:04:19;;;;;;;0.80;0.30;;;21.90;63.40;;;;;;4952022;29;20063;-79
2022/06/10 09:06:51;;;;;;;;;;;22.00;62.90;;;;;;4943712;29;20042;-79
2022/06/10 09:09:20;;;;;;;0.77;0.40;;;22.70;62.50;;;;;;4947511;28;19914;-78
2022/06/10 09:12:15;;;;;;;0.15;0.15;;;23.40;60.40;;;;;;4945539;29;20085;-79
2022/06/10 09:14:42;;;;;;;0.95;0.25;;;23.90;57.80;;;;;;4939036;29;20051;-78
2022/06/10 09:17:46;;;;;;;0.30;0.13;;;23.60;56.80;;;;;;4952734;28;20046;-78
2022/06/10 09:20:28;;;;;;;0.30;0.20;;;23.10;58.10;;;;;;4942447;29;20035;-78
2022/06/10 09:23:00;;;;;;;1.25;0.20;;;22.80;58.80;;;;;;4939627;29;20043;-78
2022/06/10 09:25:32;;;;;;;0.63;0.30;;;22.70;60.00;;;;;;4960359;28;20099;-78
2022/06/10 09:28:00;;;;;;;1.30;0.20;;;22.70;60.20;;;;;;4934422;29;20058;-78
2022/06/10 09:30:52;;;;;;;0.45;0.22;;;22.80;60.60;;;;;;4936262;29;20023;-78
2022/06/10 09:33:30;;;;;;;1.90;0.28;;;22.90;59.40;;;;;;4947545;29;20055;-79
2022/06/10 09:36:01;;;;;;;0.85;0.30;;;23.00;60.20;;;;;;4954185;28;20038;-78
2022/06/10 09:38:41;;;;;;;3.28;0.50;;;22.90;59.20;;;;;;4952450;28;20457;-78
2022/06/10 09:41:13;;;;;;;0.45;0.20;;;23.00;59.10;;;;;;4941556;28;20126;-78
2022/06/10 09:43:56;;;;;;;0.50;0.30;;;23.30;59.00;;;;;;4934047;29;20043;-78
2022/06/10 09:46:48;;;;;;;8.05;1.10;;;23.50;58.00;;;;;;4935788;29;20032;-78
2022/06/10 09:49:52;;;;;;;0.80;0.30;;;23.60;58.40;;;;;;4936742;29;20055;-78
2022/06/10 09:52:36;;;;;;;0.98;0.30;;;23.50;59.60;;;;;;4952798;29;20031;-78
2022/06/10 09:55:41;;;;;;;1.75;0.20;;;23.30;58.50;;;;;;4939805;29;20035;-78
2022/06/10 09:58:31;;;;;;;1.50;0.40;;;23.10;59.50;;;;;;4948348;28;20043;-78
2022/06/10 10:01:38;;;;;;;0.70;0.30;;;22.90;59.90;;;;;;4937875;28;20122;-78
2022/06/10 10:04:25;;;;;;;2.75;0.40;;;22.80;60.10;;;;;;4930059;29;20071;-78
2022/06/10 10:07:02;;;;;;;2.00;0.35;;;22.70;60.60;;;;;;4949431;29;20055;-78
2022/06/10 10:09:30;;;;;;;0.40;0.20;;;23.00;60.30;;;;;;4948023;29;20059;-78
2022/06/10 10:12:08;;;;;;;0.32;0.20;;;23.50;59.40;;;;;;4947816;28;20063;-78
2022/06/10 10:14:53;;;;;;;1.05;0.40;;;23.80;57.70;;;;;;4948007;29;20368;-78
2022/06/10 10:17:21;;;;;;;0.90;0.40;;;24.00;57.20;;;;;;4951133;29;20031;-80
2022/06/10 10:20:07;;;;;;;0.65;0.20;;;23.70;57.80;;;;;;4943368;28;20023;-80
2022/06/10 10:22:56;;;;;;;0.57;0.30;;;23.40;58.10;;;;;;4944286;29;20573;-81
2022/06/10 10:25:25;;;;;;;0.40;0.20;;;23.20;59.20;;;;;;4945432;29;20058;-80
2022/06/10 10:27:52;;;;;;;0.65;0.28;;;23.00;59.80;;;;;;4958377;28;20034;-80
2022/06/10 10:30:23;;;;;;;0.57;0.30;;;22.80;60.10;;;;;;4957234;28;20548;-79
2022/06/10 10:32:57;;;;;;;1.25;0.30;;;22.80;60.80;;;;;;4947901;28;20042;-79
2022/06/10 10:35:37;;;;;;;1.30;0.43;;;22.80;60.90;;;;;;4939006;29;20691;-78
2022/06/10 10:38:12;;;;;;;0.28;0.10;;;22.90;60.50;;;;;;4943624;29;20083;-79
2022/06/10 10:40:41;;;;;;;0.40;0.20;;;23.10;61.20;;;;;;4943193;29;20043;-79
2022/06/10 10:43:21;;;;;;;0.83;0.20;;;23.30;60.10;;;;;;4938672;29;20039;-79
2022/06/10 10:46:06;;;;;;;0.93;0.50;;;23.50;60.30;;;;;;4953564;29;20036;-80
2022/06/10 10:48:53;;;;;;;0.25;0.20;;;23.80;59.20;;;;;;4945967;29;20118;-79
2022/06/10 10:51:23;;;;;;;0.90;0.30;;;23.80;58.90;;;;;;4951397;29;20031;-78
2022/06/10 10:53:54;;;;;;;1.40;0.47;;;23.80;58.80;;;;;;4938660;29;20032;-78
2022/06/10 10:56:37;;;;;;;2.00;0.40;;;23.90;58.20;;;;;;4951697;29;20059;-82
2022/06/10 10:59:04;;;;;;;0.47;0.30;;;24.10;58.50;;;;;;4939292;29;20114;-81
2022/06/10 11:01:50;;;;;;;0.45;0.20;;;24.60;58.60;;;;;;4957352;28;20067;-78
2022/06/10 11:04:26;;;;;;;0.70;0.35;;;25.10;55.90;;;;;;4945186;29;20035;-81
2022/06/10 11:07:10;;;;;;;0.70;0.28;;;25.30;55.90;;;;;;4942709;29;20123;-80
2022/06/10 11:09:50;;;;;;;0.32;0.10;;;25.20;54.40;;;;;;4945021;28;20047;-76
2022/06/10 11:12:26;;;;;;;3.30;0.60;;;25.00;55.00;;;;;;4940306;29;20028;-77
2022/06/10 11:15:03;;;;;;;1.65;0.50;;;24.60;55.80;;;;;;4948301;29;20034;-77
2022/06/10 11:17:30;;;;;;;0.80;0.30;;;24.20;57.50;;;;;;4952858;28;20034;-77
2022/06/10 11:20:01;;;;;;;0.20;0.10;;;23.80;57.90;;;;;;4956102;28;20024;-77
2022/06/10 11:22:28;;;;;;;0.30;0.10;;;23.40;59.40;;;;;;4956188;28;20039;-77
2022/06/10 11:25:03;;;;;;;0.43;0.20;;;23.00;61.30;;;;;;4953877;29;20016;-77
2022/06/10 11:27:32;;;;;;;1.63;0.20;;;22.70;62.50;;;;;;4954578;29;20030;-77
2022/06/10 11:30:06;;;;;;;1.42;0.40;;;22.60;63.20;;;;;;4949865;28;20487;-76
2022/06/10 11:32:49;;;;;;;0.60;0.35;;;22.80;62.40;;;;;;4947925;29;20037;-77
2022/06/10 11:35:37;;;;;;;0.70;0.40;;;23.10;62.10;;;;;;4955981;28;20031;-77
2022/06/10 11:38:09;;;;;;;0.90;0.30;;;23.20;61.40;;;;;;4947962;29;20031;-78
2022/06/10 11:40:40;;;;;;;0.75;0.30;;;23.40;60.80;;;;;;4947075;28;20114;-78
2022/06/10 11:43:06;;;;;;;0.95;0.30;;;23.70;60.80;;;;;;4945442;29;20033;-77
2022/06/10 11:45:44;;;;;;;0.35;0.20;;;23.80;59.50;;;;;;4953554;28;20016;-77
2022/06/10 11:48:18;;;;;;;0.43;0.20;;;24.10;59.30;;;;;;4945687;28;20051;-77
2022/06/10 11:50:53;;;;;;;0.70;0.30;;;24.30;58.80;;;;;;4953971;29;20039;-77
2022/06/10 11:53:45;;;;;;;1.98;0.30;;;24.50;57.60;;;;;;4951351;28;20047;-77
2022/06/10 11:59:52;;;;;;;0.57;0.30;;;24.50;56.80;;;;;;4945714;29;20038;-77
2022/06/10 12:02:34;;;;;;;0.80;0.30;;;23.90;58.30;;;;;;4954423;29;20050;-77
2022/06/10 12:05:09;;;;;;;1.83;0.28;;;23.40;60.20;;;;;;4940205;28;20498;-77
2022/06/10 12:07:44;;;;;;;0.50;0.25;;;23.10;61.10;;;;;;4935755;29;20042;-77
2022/06/10 12:10:16;;;;;;;0.90;0.40;;;23.00;61.80;;;;;;4935833;29;20454;-77
2022/06/10 12:12:44;;;;;;;1.65;0.65;;;23.00;62.50;;;;;;4954629;29;20058;-77
2022/06/10 12:15:25;;;;;;;1.55;0.43;;;22.80;62.40;;;;;;4953785;28;20066;-77
2022/06/10 12:17:56;;;;;;;0.35;0.30;;;22.90;62.10;;;;;;4955408;28;20078;-77
2022/06/10 12:20:41;;;;;;;0.43;0.30;;;23.00;62.20;;;;;;4951976;28;20698;-77
2022/06/10 12:23:15;;;;;;;0.80;0.40;;;23.40;62.80;;;;;;4948196;29;20170;-77
2022/06/10 12:26:25;;;;;;;0.60;0.30;;;23.90;61.90;;;;;;4944183;29;20023;-77
2022/06/10 12:29:19;;;;;;;2.38;0.35;;;24.30;60.40;;;;;;4948403;29;20703;-77
2022/06/10 12:32:07;;;;;;;0.70;0.30;;;24.40;59.00;;;;;;4951333;29;20074;-77
2022/06/10 12:34:35;;;;;;;1.40;0.38;;;24.30;59.00;;;;;;4940753;29;20396;-77
2022/06/10 12:37:06;;;;;;;1.20;0.98;;;24.20;59.40;;;;;;4949680;28;20582;-77
2022/06/10 12:39:54;;;;;;;1.05;0.30;;;24.00;58.80;;;;;;4948037;28;20043;-77
2022/06/10 12:42:25;;;;;;;1.10;0.28;;;23.70;59.40;;;;;;4938747;29;20051;-77
2022/06/10 12:44:55;;;;;;;0.90;0.32;;;23.30;61.50;;;;;;4935287;29;20062;-77
2022/06/10 12:47:41;;;;;;;0.63;0.43;;;23.10;62.20;;;;;;4944499;29;20079;-77
2022/06/10 12:50:28;;;;;;;0.80;0.25;;;23.00;63.00;;;;;;4954938;28;20030;-77
2022/06/10 12:53:29;;;;;;;1.02;0.20;;;22.80;63.20;;;;;;4950362;28;20032;-77
2022/06/10 12:56:00;;;;;;;1.17;0.40;;;22.70;63.10;;;;;;4940953;29;20486;-77
2022/06/10 12:58:38;;;;;;;1.17;0.30;;;22.90;62.70;;;;;;4950313;29;20035;-77
2022/06/10 13:01:23;;;;;;;1.48;0.28;;;23.30;62.10;;;;;;4936346;29;20067;-77
2022/06/10 13:03:59;;;;;;;0.68;0.30;;;23.80;61.10;;;;;;4936165;29;20042;-76
2022/06/10 13:06:41;;;;;;;0.60;0.30;;;24.00;60.30;;;;;;4936424;29;20028;-77
2022/06/10 13:09:10;;;;;;;0.90;0.38;;;24.10;60.30;;;;;;4947669;29;20388;-77
2022/06/10 13:12:08;;;;;;;1.13;0.35;;;24.50;59.90;;;;;;4946365;28;20030;-77
2022/06/10 13:14:36;;;;;;;1.40;0.50;;;24.30;59.80;;;;;;4938021;29;20118;-76
2022/06/10 13:17:15;;;;;;;1.17;0.30;;;24.00;60.10;;;;;;4946997;29;20079;-77
2022/06/10 13:19:58;;;;;;;1.10;0.30;;;24.00;59.90;;;;;;4946518;29;20098;-77
2022/06/10 13:22:37;;;;;;;2.03;0.30;;;24.10;59.70;;;;;;4936490;29;20035;-77
2022/06/10 13:25:03;;;;;;;0.70;0.25;;;24.00;59.20;;;;;;4958956;28;20031;-77
2022/06/10 13:27:45;;;;;;;0.65;0.40;;;24.10;59.40;;;;;;4961531;28;20031;-77
2022/06/10 13:30:16;;;;;;;0.60;0.28;;;24.10;59.40;;;;;;4955019;28;20110;-77
2022/06/10 13:32:48;;;;;;;0.50;0.20;;;24.30;58.80;;;;;;4953828;29;20513;-77